createdAt,value
2019-05-07T00:00:43.788Z,6.1
2019-05-07T00:16:01.910Z,6
2019-05-07T00:31:12.875Z,6
2019-05-07T00:46:25.591Z,5.8
2019-05-07T01:01:27.538Z,5.7
2019-05-07T01:16:52.811Z,5.6
2019-05-07T01:32:03.236Z,5.5
2019-05-07T01:47:15.724Z,5.5
2019-05-07T02:02:28.212Z,5.3
2019-05-07T02:17:38.981Z,5.1
2019-05-07T02:32:53.912Z,5.1
2019-05-07T02:48:05.299Z,5.2
2019-05-07T03:03:17.684Z,5.1
2019-05-07T03:18:23.337Z,5
2019-05-07T03:33:46.946Z,5
2019-05-07T03:48:54.686Z,5
2019-05-07T04:04:07.137Z,5.2
2019-05-07T04:19:19.528Z,5.4
2019-05-07T04:34:33.668Z,5.6
2019-05-07T04:49:44.620Z,5.9
2019-05-07T05:04:57.621Z,6.3
2019-05-07T05:20:10.246Z,6.6
2019-05-07T05:35:19.171Z,6.8
2019-05-07T05:50:36.333Z,7.2
2019-05-07T06:05:49.557Z,7.7
2019-05-07T06:21:03.084Z,8.2
2019-05-07T06:36:06.589Z,8.7
2019-05-07T06:51:32.562Z,8.9
2019-05-07T07:06:44.212Z,9
2019-05-07T07:21:58.123Z,9.2
2019-05-07T07:37:15.504Z,9.4
2019-05-07T07:52:26.916Z,10.1
2019-05-07T08:07:42.554Z,9.8
2019-05-07T08:22:54.668Z,9.4
2019-05-07T08:38:08.622Z,9.4
2019-05-07T08:53:18.224Z,10
2019-05-07T09:08:37.320Z,11.2
2019-05-07T09:23:52.343Z,11.1
2019-05-07T09:39:06.634Z,10.9
2019-05-07T09:54:12.683Z,10.6
2019-05-07T10:09:35.793Z,11.2
2019-05-07T10:24:52.193Z,12
2019-05-07T10:40:05.923Z,12.8
2019-05-07T10:55:22.236Z,12.6
2019-05-07T11:10:35.405Z,12.1
2019-05-07T11:25:52.629Z,13.1
2019-05-07T11:41:07.271Z,13.7
2019-05-07T11:56:23.179Z,13.9
2019-05-07T12:11:32.174Z,14.3
2019-05-07T12:26:55.478Z,14.7
2019-05-07T12:42:12.094Z,15
2019-05-07T12:57:28.723Z,15
2019-05-07T13:12:45.649Z,15.4
2019-05-07T13:27:56.988Z,15.7
2019-05-07T13:43:23.046Z,15.9
2019-05-07T13:58:37.908Z,15.8
2019-05-07T14:13:55.589Z,16.4
2019-05-07T14:29:13.192Z,16.9
2019-05-07T14:44:26.430Z,16.7
2019-05-07T14:59:48.301Z,16.5
2019-05-07T15:15:05.300Z,16.2
2019-05-07T15:30:23.001Z,16.6
2019-05-07T15:45:25.135Z,15.9
2019-05-07T16:00:54.940Z,15.6
2019-05-07T16:16:13.573Z,15.3
2019-05-07T16:31:29.742Z,14.5
2019-05-07T16:46:45.578Z,13.8
2019-05-07T17:01:52.091Z,13.2
2019-05-07T17:17:16.440Z,13.6
2019-05-07T17:32:32.162Z,13
2019-05-07T17:47:47.027Z,12.5
2019-05-07T18:03:02.564Z,12.3
2019-05-07T18:18:14.834Z,12
2019-05-07T18:33:33.561Z,11.8
2019-05-07T18:48:46.588Z,11.6
2019-05-07T19:04:02.045Z,11.4
2019-05-07T19:19:08.074Z,11.1
2019-05-07T19:34:32.400Z,10.9
2019-05-07T19:49:44.893Z,10.8
2019-05-07T20:04:59.242Z,10.7
2019-05-07T20:20:13.647Z,10.6
2019-05-07T20:35:27.680Z,10.5
2019-05-07T20:50:42.480Z,10.4
2019-05-07T21:05:56.982Z,11.4
2019-05-07T21:21:12.438Z,10.6
2019-05-07T21:36:18.666Z,10.3
2019-05-07T21:51:39.940Z,10.1
2019-05-07T22:06:54.096Z,9.9
2019-05-07T22:22:08.130Z,9.7
2019-05-07T22:37:22.131Z,9.4
2019-05-07T22:52:35.954Z,9.2
2019-05-07T23:07:49.754Z,9
2019-05-07T23:23:03.551Z,8.8
2019-05-07T23:38:17.090Z,8.6
2019-05-07T23:53:24.979Z,8.5
